Time;durP1;ratioP1;P1;durP2;ratioP2;P2;SDS_P1;SDS_P2;PMS_P1;PMS_P2;Temp;Humidity;BMP_temperature;BMP_pressure;BME280_temperature;BME280_humidity;BME280_pressure;Samples;Min_cycle;Max_cycle;Signal;HPM_P1;HPM_P2
2023/09/09 00:00:07;;;;;;;5.80;4.80;;;19.50;99.90;;;;;;5032994;28;20446;-80
2023/09/09 00:02:34;;;;;;;7.60;3.87;;;19.50;99.90;;;;;;5033585;28;20438;-80
2023/09/09 00:05:00;;;;;;;5.77;3.70;;;19.50;99.90;;;;;;5032865;28;20472;-80
2023/09/09 00:07:27;;;;;;;7.87;4.40;;;19.40;99.90;;;;;;5032887;28;20489;-80
2023/09/09 00:09:54;;;;;;;5.30;3.70;;;19.40;99.90;;;;;;5033205;28;20434;-80
2023/09/09 00:12:21;;;;;;;4.23;3.20;;;19.40;99.90;;;;;;5032889;28;20448;-80
2023/09/09 00:14:49;;;;;;;4.70;3.27;;;19.30;99.90;;;;;;5032825;28;20465;-80
2023/09/09 00:17:16;;;;;;;5.97;3.97;;;19.30;99.90;;;;;;5032901;28;20810;-80
2023/09/09 00:19:42;;;;;;;5.93;4.40;;;19.30;99.90;;;;;;5032589;28;20439;-80
2023/09/09 00:22:09;;;;;;;4.37;3.97;;;19.30;99.90;;;;;;5032821;28;20442;-80
2023/09/09 00:24:36;;;;;;;6.00;3.70;;;19.20;99.90;;;;;;5036364;28;20485;-80
2023/09/09 00:27:03;;;;;;;6.00;3.90;;;19.20;99.90;;;;;;5036247;28;20494;-80
2023/09/09 00:29:30;;;;;;;6.70;4.33;;;19.20;99.90;;;;;;5036382;28;20455;-80
2023/09/09 00:31:58;;;;;;;7.90;4.63;;;19.20;99.90;;;;;;5036190;28;20496;-79
2023/09/09 00:34:25;;;;;;;5.43;3.70;;;19.20;99.90;;;;;;5036023;28;20457;-80
2023/09/09 00:36:51;;;;;;;6.10;3.70;;;19.20;99.90;;;;;;5036238;28;20446;-80
2023/09/09 00:39:18;;;;;;;5.23;4.03;;;19.10;99.90;;;;;;5036378;28;20446;-80
2023/09/09 00:41:45;;;;;;;8.27;4.47;;;19.10;99.90;;;;;;5036093;28;20442;-80
2023/09/09 00:44:12;;;;;;;4.43;4.03;;;19.10;99.90;;;;;;5036226;28;20453;-80
2023/09/09 00:46:38;;;;;;;5.23;3.70;;;19.10;99.90;;;;;;5036041;28;20486;-80
2023/09/09 00:49:07;;;;;;;5.47;3.40;;;19.10;99.90;;;;;;5036231;28;20446;-80
2023/09/09 00:51:37;;;;;;;5.63;4.07;;;19.10;99.90;;;;;;5036070;28;20475;-80
2023/09/09 00:54:04;;;;;;;4.80;3.50;;;19.10;99.90;;;;;;5035987;28;20908;-80
2023/09/09 00:56:32;;;;;;;4.67;3.40;;;19.00;99.90;;;;;;5035937;28;20463;-80
2023/09/09 00:58:59;;;;;;;6.50;3.53;;;19.00;99.90;;;;;;5035913;28;20844;-80
2023/09/09 01:01:27;;;;;;;3.20;2.90;;;19.00;99.90;;;;;;5035935;28;20435;-80
2023/09/09 01:03:54;;;;;;;4.53;3.10;;;19.00;99.90;;;;;;5035843;28;20486;-80
2023/09/09 01:06:22;;;;;;;4.50;3.70;;;19.00;99.90;;;;;;5035665;28;20513;-80
2023/09/09 01:08:49;;;;;;;6.47;4.40;;;19.00;99.90;;;;;;5035431;28;20951;-80
2023/09/09 01:11:16;;;;;;;5.63;3.63;;;18.90;99.90;;;;;;5035724;28;20447;-80
2023/09/09 01:13:43;;;;;;;5.47;3.80;;;18.90;99.90;;;;;;5036205;28;20446;-80
2023/09/09 01:16:10;;;;;;;5.63;4.17;;;18.90;99.90;;;;;;5035347;28;20462;-80
2023/09/09 01:18:37;;;;;;;5.67;3.50;;;18.90;99.90;;;;;;5035598;28;20446;-80
2023/09/09 01:21:07;;;;;;;5.97;3.83;;;18.90;99.90;;;;;;5035212;28;20447;-80
2023/09/09 01:23:36;;;;;;;4.03;3.30;;;18.90;99.90;;;;;;5035237;28;20439;-80
2023/09/09 01:26:03;;;;;;;4.10;3.30;;;18.90;99.90;;;;;;5035060;28;20486;-80
2023/09/09 01:28:30;;;;;;;4.97;3.80;;;18.90;99.90;;;;;;5035401;28;20455;-80
2023/09/09 01:30:57;;;;;;;5.53;3.10;;;18.80;99.90;;;;;;5035633;28;20449;-80
2023/09/09 01:33:23;;;;;;;5.97;4.10;;;18.90;99.90;;;;;;5035021;28;20457;-80
2023/09/09 01:35:50;;;;;;;4.93;4.10;;;18.90;99.90;;;;;;5035180;28;20478;-80
2023/09/09 01:38:17;;;;;;;8.00;3.90;;;18.80;99.90;;;;;;5035190;28;20827;-80
2023/09/09 01:40:45;;;;;;;6.30;4.10;;;18.90;99.90;;;;;;5035130;28;20442;-80
2023/09/09 01:43:12;;;;;;;4.33;3.90;;;18.80;99.90;;;;;;5035675;28;20453;-80
2023/09/09 01:45:38;;;;;;;4.03;2.90;;;18.80;99.90;;;;;;5035563;28;20469;-80
2023/09/09 01:48:06;;;;;;;4.30;3.37;;;18.90;99.90;;;;;;5034678;28;20482;-80
2023/09/09 01:50:33;;;;;;;7.43;4.90;;;18.80;99.90;;;;;;5034724;28;20454;-80
2023/09/09 01:53:00;;;;;;;5.57;4.23;;;18.80;99.90;;;;;;5034909;28;20454;-80
2023/09/09 01:55:26;;;;;;;4.90;3.57;;;18.80;99.90;;;;;;5034781;28;20466;-80
2023/09/09 01:57:55;;;;;;;3.87;3.47;;;18.70;99.90;;;;;;5034836;28;20445;-80
2023/09/09 02:00:21;;;;;;;6.60;3.90;;;18.70;99.90;;;;;;5034774;28;20431;-80
2023/09/09 02:02:48;;;;;;;8.00;3.97;;;18.70;99.90;;;;;;5034497;28;20445;-80
2023/09/09 02:05:15;;;;;;;5.30;3.57;;;18.70;99.90;;;;;;5034624;28;20472;-80
2023/09/09 02:07:42;;;;;;;8.33;4.33;;;18.70;99.90;;;;;;5034289;28;20482;-80
2023/09/09 02:10:09;;;;;;;7.37;4.23;;;18.60;99.90;;;;;;5034805;28;20456;-80
2023/09/09 02:12:36;;;;;;;6.03;4.00;;;18.60;99.90;;;;;;5034545;28;20443;-80
2023/09/09 02:15:04;;;;;;;5.93;4.53;;;18.60;99.90;;;;;;5034479;28;20475;-79
2023/09/09 02:17:31;;;;;;;4.27;3.87;;;18.60;99.90;;;;;;5034195;28;20440;-80
2023/09/09 02:19:58;;;;;;;5.67;4.13;;;18.60;99.90;;;;;;5034408;28;20447;-80
2023/09/09 02:22:25;;;;;;;6.20;4.00;;;18.50;99.90;;;;;;5034363;28;20457;-80
2023/09/09 02:24:56;;;;;;;9.10;4.00;;;18.50;99.90;;;;;;5034413;28;20979;-80
2023/09/09 02:27:23;;;;;;;5.23;3.70;;;18.60;99.90;;;;;;5033754;28;20490;-79
2023/09/09 02:29:50;;;;;;;6.60;4.63;;;18.50;99.90;;;;;;5034290;28;20927;-80
2023/09/09 02:32:18;;;;;;;6.30;4.70;;;18.50;99.90;;;;;;5033912;28;20458;-80
2023/09/09 02:34:45;;;;;;;11.20;4.03;;;18.50;99.90;;;;;;5034033;28;20462;-80
2023/09/09 02:37:16;;;;;;;6.40;4.63;;;18.50;99.90;;;;;;5033865;28;20461;-80
2023/09/09 02:39:44;;;;;;;5.73;4.30;;;18.50;99.90;;;;;;5034139;28;20465;-80
2023/09/09 02:42:14;;;;;;;5.47;3.60;;;18.50;99.90;;;;;;5033893;28;20799;-80
2023/09/09 02:44:41;;;;;;;8.47;4.77;;;18.50;99.90;;;;;;5033693;28;21029;-80
2023/09/09 02:47:08;;;;;;;4.23;2.87;;;18.50;99.90;;;;;;5033237;28;20486;-80
2023/09/09 02:49:37;;;;;;;5.20;4.27;;;18.50;99.90;;;;;;5033565;28;20541;-80
2023/09/09 02:52:04;;;;;;;9.93;4.43;;;18.50;99.90;;;;;;5033593;28;20450;-80
2023/09/09 02:54:31;;;;;;;7.23;4.20;;;18.50;99.90;;;;;;5034277;28;20450;-80
2023/09/09 02:56:58;;;;;;;6.07;4.60;;;18.50;99.90;;;;;;5033734;28;20815;-80
2023/09/09 02:59:25;;;;;;;5.93;3.83;;;18.40;99.90;;;;;;5033759;28;20451;-80
2023/09/09 03:01:51;;;;;;;10.73;5.13;;;18.40;99.90;;;;;;5033682;28;20438;-80
2023/09/09 03:04:19;;;;;;;5.80;4.03;;;18.40;99.90;;;;;;5033533;28;20457;-80
2023/09/09 03:06:47;;;;;;;7.67;4.60;;;18.40;99.90;;;;;;5033221;28;21010;-80
2023/09/09 03:09:14;;;;;;;5.93;4.33;;;18.40;99.90;;;;;;5033580;28;20451;-80
2023/09/09 03:11:41;;;;;;;8.27;4.80;;;18.40;99.90;;;;;;5033522;28;20493;-80
2023/09/09 03:14:08;;;;;;;4.97;4.10;;;18.30;99.90;;;;;;5033484;28;20439;-80
2023/09/09 03:16:35;;;;;;;6.53;4.73;;;18.20;99.90;;;;;;5033408;28;20542;-80
2023/09/09 03:19:02;;;;;;;5.83;4.90;;;18.30;99.90;;;;;;5033436;28;20812;-80
2023/09/09 03:21:29;;;;;;;5.67;5.10;;;18.30;99.90;;;;;;5033325;28;21002;-80
2023/09/09 03:23:57;;;;;;;7.20;4.70;;;18.30;99.90;;;;;;5033360;28;20797;-80
2023/09/09 03:26:24;;;;;;;6.43;4.17;;;18.20;99.90;;;;;;5032811;28;20486;-80
2023/09/09 03:28:51;;;;;;;7.17;4.50;;;18.20;99.90;;;;;;5033279;28;20489;-79
2023/09/09 03:31:18;;;;;;;6.00;3.37;;;18.20;99.90;;;;;;5033175;28;20458;-80
2023/09/09 03:33:45;;;;;;;9.27;5.80;;;18.20;99.90;;;;;;5033281;28;20450;-79
2023/09/09 03:36:11;;;;;;;5.57;4.53;;;18.20;99.90;;;;;;5033173;28;20477;-80
2023/09/09 03:38:38;;;;;;;6.10;4.47;;;18.20;99.90;;;;;;5032973;28;20446;-80
2023/09/09 03:41:07;;;;;;;6.63;5.20;;;18.20;99.90;;;;;;5033197;28;20442;-80
2023/09/09 03:43:34;;;;;;;7.40;4.53;;;18.20;99.90;;;;;;5033178;28;20443;-80
2023/09/09 03:46:01;;;;;;;10.93;5.60;;;18.20;99.90;;;;;;5032808;28;20455;-80
2023/09/09 03:48:28;;;;;;;5.50;5.00;;;18.10;99.90;;;;;;5033076;28;20518;-80
2023/09/09 03:50:59;;;;;;;6.57;4.97;;;18.20;99.90;;;;;;5032846;28;20936;-80
2023/09/09 03:53:25;;;;;;;6.77;4.40;;;18.10;99.90;;;;;;5032839;28;20912;-80
2023/09/09 03:55:52;;;;;;;7.37;5.10;;;18.10;99.90;;;;;;5032984;28;20472;-80
2023/09/09 03:58:21;;;;;;;7.47;4.60;;;18.10;99.90;;;;;;5036356;28;20442;-80
2023/09/09 04:00:48;;;;;;;9.17;4.50;;;18.10;99.90;;;;;;5037399;28;20442;-80
2023/09/09 04:03:15;;;;;;;8.13;5.33;;;18.10;99.90;;;;;;5036709;28;20970;-80
2023/09/09 04:05:42;;;;;;;6.07;4.67;;;18.10;99.90;;;;;;5036916;28;20846;-80
2023/09/09 04:08:09;;;;;;;5.67;4.37;;;18.10;99.90;;;;;;5036860;28;20485;-80
2023/09/09 04:10:36;;;;;;;9.20;5.23;;;18.00;99.90;;;;;;5036867;28;20485;-80
2023/09/09 04:13:03;;;;;;;8.80;4.33;;;18.10;99.90;;;;;;5036613;28;20434;-80
2023/09/09 04:15:32;;;;;;;6.90;4.50;;;18.10;99.90;;;;;;5036438;28;20461;-80
2023/09/09 04:17:58;;;;;;;6.43;4.30;;;18.10;99.90;;;;;;5037236;28;20837;-80
2023/09/09 04:20:25;;;;;;;6.47;4.20;;;18.10;99.90;;;;;;5036663;28;20439;-80
2023/09/09 04:22:52;;;;;;;8.10;4.67;;;18.10;99.90;;;;;;5036519;28;20443;-80
2023/09/09 04:25:19;;;;;;;4.87;4.37;;;18.10;99.90;;;;;;5035998;28;21002;-80
2023/09/09 04:27:45;;;;;;;5.53;4.90;;;18.10;99.90;;;;;;5036261;28;20996;-80
2023/09/09 04:30:13;;;;;;;4.87;3.97;;;18.00;99.90;;;;;;5036221;28;20443;-79
2023/09/09 04:32:41;;;;;;;5.50;4.17;;;18.00;99.90;;;;;;5036477;28;20557;-80
2023/09/09 04:35:09;;;;;;;12.27;4.60;;;18.00;99.90;;;;;;5036329;28;20462;-80
2023/09/09 04:37:36;;;;;;;11.07;5.40;;;18.00;99.90;;;;;;5036584;28;20443;-80
2023/09/09 04:40:05;;;;;;;9.90;5.37;;;18.00;99.90;;;;;;5036357;28;20446;-80
2023/09/09 04:42:32;;;;;;;8.77;5.67;;;18.00;99.90;;;;;;5036216;28;20809;-80
2023/09/09 04:44:58;;;;;;;6.77;4.93;;;18.00;99.90;;;;;;5036150;28;20820;-80
2023/09/09 04:47:25;;;;;;;7.60;5.03;;;18.00;99.90;;;;;;5035960;28;20868;-79
2023/09/09 04:49:56;;;;;;;6.60;4.17;;;18.00;99.90;;;;;;5036115;28;20442;-80
2023/09/09 04:52:22;;;;;;;6.97;5.07;;;18.00;99.90;;;;;;5036123;28;20439;-79
2023/09/09 04:54:49;;;;;;;7.13;4.50;;;17.90;99.90;;;;;;5035672;28;20474;-80
2023/09/09 04:57:16;;;;;;;6.10;4.10;;;17.90;99.90;;;;;;5035960;28;20569;-80
2023/09/09 04:59:43;;;;;;;4.67;3.80;;;17.90;99.90;;;;;;5035640;28;20447;-79
2023/09/09 05:02:10;;;;;;;5.40;4.80;;;17.90;99.90;;;;;;5035940;28;20443;-80
2023/09/09 05:04:37;;;;;;;6.97;4.40;;;17.90;99.90;;;;;;5035771;28;20470;-79
2023/09/09 05:07:05;;;;;;;5.73;4.17;;;17.90;99.90;;;;;;5035513;28;20822;-79
2023/09/09 05:09:32;;;;;;;4.03;3.73;;;17.90;99.90;;;;;;5035128;28;20447;-79
2023/09/09 05:11:58;;;;;;;8.60;4.20;;;17.90;99.90;;;;;;5035387;28;20450;-80
2023/09/09 05:14:25;;;;;;;8.43;4.80;;;17.90;99.90;;;;;;5035777;28;20442;-80
2023/09/09 05:16:52;;;;;;;6.20;5.00;;;17.90;99.90;;;;;;5035678;28;20450;-79
2023/09/09 05:19:19;;;;;;;7.60;4.40;;;17.90;99.90;;;;;;5035393;28;20435;-79
2023/09/09 05:21:46;;;;;;;11.63;4.93;;;17.80;99.90;;;;;;5035530;28;20449;-79
2023/09/09 05:24:14;;;;;;;6.63;4.43;;;17.90;99.90;;;;;;5035430;28;20454;-79
2023/09/09 05:26:41;;;;;;;6.40;3.60;;;17.90;99.90;;;;;;5035422;28;20532;-79
2023/09/09 05:29:07;;;;;;;6.63;4.40;;;17.90;99.90;;;;;;5035320;28;20497;-79
2023/09/09 05:31:34;;;;;;;8.80;4.60;;;17.90;99.90;;;;;;5035084;28;20447;-80
2023/09/09 05:34:01;;;;;;;6.37;5.20;;;17.90;99.90;;;;;;5035331;28;20443;-80
2023/09/09 05:36:29;;;;;;;8.53;5.60;;;17.90;99.90;;;;;;5035212;28;20471;-80
2023/09/09 05:38:59;;;;;;;13.50;4.90;;;17.90;99.90;;;;;;5035188;28;20443;-80
2023/09/09 05:41:28;;;;;;;8.17;5.50;;;17.90;99.90;;;;;;5034964;28;20434;-80
2023/09/09 05:43:55;;;;;;;7.87;5.20;;;17.90;99.90;;;;;;5034848;28;20862;-80
2023/09/09 05:46:22;;;;;;;7.73;4.33;;;18.00;99.90;;;;;;5035027;28;20462;-80
2023/09/09 05:48:49;;;;;;;6.37;5.10;;;18.00;99.90;;;;;;5034704;28;20487;-80
2023/09/09 05:51:16;;;;;;;8.00;4.10;;;18.00;99.90;;;;;;5034933;28;20442;-79
2023/09/09 05:53:43;;;;;;;10.47;4.80;;;18.00;99.90;;;;;;5034952;28;20454;-79
2023/09/09 05:56:09;;;;;;;5.70;4.80;;;18.00;99.90;;;;;;5034795;28;20462;-79
2023/09/09 05:58:37;;;;;;;7.30;4.03;;;18.10;99.90;;;;;;5034727;28;20439;-80
2023/09/09 06:01:04;;;;;;;5.63;4.40;;;18.10;99.90;;;;;;5034887;28;20542;-80
2023/09/09 06:03:31;;;;;;;7.07;4.73;;;18.10;99.90;;;;;;5034779;28;20443;-80
2023/09/09 06:05:58;;;;;;;9.70;4.87;;;18.10;99.90;;;;;;5034677;28;20471;-80
2023/09/09 06:08:25;;;;;;;11.27;5.73;;;18.10;99.90;;;;;;5034732;28;20486;-80
2023/09/09 06:10:52;;;;;;;6.60;4.87;;;18.20;99.90;;;;;;5034634;28;20443;-80
2023/09/09 06:13:18;;;;;;;10.00;5.30;;;18.20;99.90;;;;;;5034595;28;20447;-80
2023/09/09 06:15:47;;;;;;;7.60;4.97;;;18.30;99.90;;;;;;5034180;28;20991;-80
2023/09/09 06:18:13;;;;;;;6.77;4.70;;;18.30;99.90;;;;;;5034190;28;20807;-80
2023/09/09 06:20:46;;;;;;;11.27;5.23;;;18.40;99.90;;;;;;5033116;28;20452;-80
2023/09/09 06:23:13;;;;;;;7.83;5.50;;;18.50;99.90;;;;;;5034187;28;20435;-80
2023/09/09 06:25:40;;;;;;;8.83;5.67;;;18.70;99.90;;;;;;5034144;28;20484;-80
2023/09/09 06:28:07;;;;;;;5.83;4.77;;;18.90;99.90;;;;;;5034003;28;21056;-80
2023/09/09 06:30:34;;;;;;;7.07;4.90;;;19.10;99.90;;;;;;5034293;28;20451;-80
2023/09/09 06:33:04;;;;;;;7.77;5.53;;;19.30;99.90;;;;;;5034309;28;20442;-80
2023/09/09 06:35:31;;;;;;;7.60;4.47;;;19.50;99.90;;;;;;5033814;28;21045;-80
2023/09/09 06:37:57;;;;;;;8.07;5.87;;;19.70;99.90;;;;;;5034558;28;20451;-80
2023/09/09 06:40:24;;;;;;;5.90;4.43;;;19.80;99.90;;;;;;5036082;28;20481;-80
2023/09/09 06:42:51;;;;;;;6.70;3.87;;;20.00;99.90;;;;;;5033759;28;21035;-80
2023/09/09 06:45:18;;;;;;;17.00;4.57;;;20.10;99.90;;;;;;5033898;28;20470;-80
2023/09/09 06:47:45;;;;;;;4.47;4.07;;;20.20;99.90;;;;;;5033884;28;20442;-81
2023/09/09 06:50:13;;;;;;;7.17;4.70;;;20.30;99.90;;;;;;5033887;28;20453;-81
2023/09/09 06:52:40;;;;;;;5.53;4.67;;;20.40;99.90;;;;;;5033803;28;20438;-81
2023/09/09 06:55:08;;;;;;;7.63;5.07;;;20.50;99.90;;;;;;5033464;28;20520;-81
2023/09/09 06:57:34;;;;;;;5.70;4.80;;;20.60;99.90;;;;;;5033781;28;20446;-81
2023/09/09 07:00:01;;;;;;;9.87;4.83;;;20.80;99.90;;;;;;5033750;28;20445;-81
2023/09/09 07:02:28;;;;;;;6.00;5.33;;;20.80;99.90;;;;;;5033445;28;20988;-81
2023/09/09 07:04:55;;;;;;;10.80;4.70;;;21.00;99.90;;;;;;5033361;28;20458;-81
2023/09/09 07:07:23;;;;;;;5.70;5.03;;;21.00;99.90;;;;;;5033605;28;20477;-81
2023/09/09 07:09:50;;;;;;;7.13;4.57;;;21.10;99.90;;;;;;5033519;28;20488;-81
2023/09/09 07:12:17;;;;;;;5.70;4.13;;;21.20;99.90;;;;;;5033545;28;20450;-81
2023/09/09 07:14:43;;;;;;;7.53;4.70;;;21.30;99.90;;;;;;5033486;28;20458;-80
2023/09/09 07:17:10;;;;;;;5.33;3.77;;;21.40;99.90;;;;;;5033470;28;20449;-81
2023/09/09 07:19:37;;;;;;;5.60;4.73;;;21.40;99.90;;;;;;5033189;28;20484;-81
2023/09/09 07:22:04;;;;;;;7.00;4.73;;;21.50;99.90;;;;;;5033546;28;20458;-81
2023/09/09 07:24:32;;;;;;;6.40;3.80;;;21.70;99.90;;;;;;5033354;28;20505;-81
2023/09/09 07:27:01;;;;;;;4.27;3.87;;;21.70;99.90;;;;;;5033019;28;20474;-81
2023/09/09 07:29:28;;;;;;;5.90;4.57;;;21.90;99.90;;;;;;5033460;28;20512;-81
2023/09/09 07:31:55;;;;;;;6.47;4.83;;;22.00;99.90;;;;;;5032924;28;20450;-81
2023/09/09 07:34:23;;;;;;;7.60;4.73;;;22.10;99.90;;;;;;5032973;28;20464;-81
2023/09/09 07:36:50;;;;;;;4.30;3.90;;;22.20;99.90;;;;;;5033217;28;20537;-81
2023/09/09 07:39:17;;;;;;;7.27;4.80;;;22.30;99.90;;;;;;5032961;28;20939;-81
2023/09/09 07:41:45;;;;;;;4.67;4.30;;;22.30;99.90;;;;;;5033216;28;20441;-80
2023/09/09 07:44:12;;;;;;;4.57;4.10;;;22.40;99.90;;;;;;5032916;28;20858;-81
2023/09/09 07:46:39;;;;;;;6.57;5.10;;;22.60;99.90;;;;;;5033061;28;20231;-81
2023/09/09 07:49:06;;;;;;;4.40;4.00;;;22.70;99.90;;;;;;5033103;28;20219;-81
2023/09/09 07:51:32;;;;;;;5.10;4.60;;;22.70;99.90;;;;;;5032922;28;20249;-81
2023/09/09 07:53:59;;;;;;;7.40;5.03;;;22.80;99.90;;;;;;5032825;28;20675;-81
2023/09/09 07:56:26;;;;;;;4.40;4.00;;;22.90;99.90;;;;;;5032987;28;20230;-81
2023/09/09 07:58:54;;;;;;;4.97;3.72;;;23.10;99.90;;;;;;5033120;28;20615;-81
2023/09/09 08:01:21;;;;;;;6.03;4.07;;;23.10;99.90;;;;;;5033436;28;20204;-81
2023/09/09 08:03:47;;;;;;;4.38;3.60;;;23.30;99.90;;;;;;5033071;28;20238;-81
2023/09/09 08:06:14;;;;;;;7.57;3.75;;;23.40;99.90;;;;;;5032882;28;20229;-81
2023/09/09 08:08:42;;;;;;;5.63;4.60;;;23.50;99.90;;;;;;5032909;28;20219;-80
2023/09/09 08:11:09;;;;;;;5.25;4.18;;;23.60;99.90;;;;;;5033353;28;20188;-81
2023/09/09 08:13:36;;;;;;;4.57;4.13;;;23.70;99.90;;;;;;5032832;28;20338;-81
2023/09/09 08:16:04;;;;;;;5.72;4.22;;;23.80;99.90;;;;;;5032580;28;20719;-81
2023/09/09 08:18:31;;;;;;;6.05;4.15;;;23.90;99.90;;;;;;5032754;28;20569;-81
2023/09/09 08:20:58;;;;;;;5.18;4.03;;;24.00;99.90;;;;;;5033025;28;20199;-81
2023/09/09 08:23:25;;;;;;;4.50;4.10;;;24.20;99.90;;;;;;5032452;28;20676;-81
2023/09/09 08:25:52;;;;;;;4.80;3.80;;;24.30;99.90;;;;;;5032616;28;20239;-81
2023/09/09 08:28:18;;;;;;;5.78;3.92;;;24.40;99.90;;;;;;5032690;28;20200;-81
2023/09/09 08:30:45;;;;;;;6.18;4.10;;;24.60;99.90;;;;;;5033179;28;20564;-80
2023/09/09 08:33:13;;;;;;;3.95;3.65;;;24.70;99.90;;;;;;5032469;28;20210;-81
2023/09/09 08:35:40;;;;;;;5.30;4.13;;;24.70;99.90;;;;;;5032419;28;20229;-81
2023/09/09 08:38:07;;;;;;;4.03;3.63;;;24.90;99.90;;;;;;5032585;28;20192;-81
2023/09/09 08:40:38;;;;;;;3.70;3.40;;;25.10;99.90;;;;;;5032644;28;20200;-80
2023/09/09 08:43:09;;;;;;;4.63;3.85;;;25.10;99.90;;;;;;5032744;28;20277;-81
2023/09/09 08:45:46;;;;;;;4.78;3.58;;;25.20;99.90;;;;;;5036277;28;20231;-81
2023/09/09 08:48:20;;;;;;;5.35;3.55;;;25.40;99.90;;;;;;5036240;28;20317;-81
2023/09/09 08:50:48;;;;;;;3.97;3.65;;;25.50;99.90;;;;;;5036193;28;20637;-81
2023/09/09 08:53:17;;;;;;;6.15;3.92;;;25.50;99.90;;;;;;5036127;28;20200;-81
2023/09/09 08:55:45;;;;;;;3.53;3.22;;;25.70;99.90;;;;;;5035668;28;20226;-80
2023/09/09 08:58:12;;;;;;;4.50;3.95;;;25.80;99.90;;;;;;5036062;28;20203;-80
2023/09/09 09:00:39;;;;;;;4.95;3.95;;;25.90;99.90;;;;;;5035978;28;20199;-80
2023/09/09 09:03:06;;;;;;;6.72;4.13;;;26.00;99.90;;;;;;5036397;28;20290;-81
2023/09/09 09:05:36;;;;;;;6.03;4.03;;;26.20;99.90;;;;;;5035650;28;20227;-81
2023/09/09 09:08:04;;;;;;;4.30;3.90;;;26.40;99.90;;;;;;5036409;28;20204;-81
2023/09/09 09:10:31;;;;;;;4.70;3.50;;;26.50;99.90;;;;;;5035669;28;20262;-80
2023/09/09 09:12:58;;;;;;;4.57;3.97;;;26.60;99.90;;;;;;5035993;28;20203;-81
2023/09/09 09:15:25;;;;;;;4.68;3.67;;;26.80;99.90;;;;;;5035652;28;20220;-81
2023/09/09 09:17:53;;;;;;;4.05;3.50;;;27.00;99.90;;;;;;5035381;28;20557;-81
2023/09/09 09:20:27;;;;;;;3.42;3.22;;;27.20;99.90;;;;;;5035933;28;20210;-81
2023/09/09 09:22:58;;;;;;;3.50;3.17;;;27.40;99.90;;;;;;5035694;28;20215;-81
2023/09/09 09:25:26;;;;;;;4.90;3.88;;;27.50;99.90;;;;;;5035308;28;20247;-81
2023/09/09 09:27:55;;;;;;;3.58;3.25;;;27.80;99.90;;;;;;5035612;28;20194;-81
2023/09/09 09:30:23;;;;;;;5.38;3.63;;;28.20;99.90;;;;;;5035625;28;20231;-81
2023/09/09 09:32:53;;;;;;;6.03;4.07;;;28.40;99.90;;;;;;5035142;28;20211;-81
2023/09/09 09:35:24;;;;;;;7.97;3.15;;;28.40;99.90;;;;;;5035368;28;20219;-81
2023/09/09 09:37:57;;;;;;;3.45;3.15;;;28.30;99.90;;;;;;5035100;28;20694;-81
2023/09/09 09:40:24;;;;;;;3.60;3.30;;;28.20;99.90;;;;;;5035286;28;20206;-81
2023/09/09 09:42:51;;;;;;;3.55;3.25;;;28.20;99.90;;;;;;5035351;28;20191;-81
2023/09/09 09:45:18;;;;;;;3.20;2.88;;;28.00;99.90;;;;;;5034846;28;20277;-81
2023/09/09 09:47:47;;;;;;;3.03;2.83;;;27.90;99.90;;;;;;5034952;28;20203;-81
2023/09/09 09:50:19;;;;;;;3.50;3.20;;;28.00;99.90;;;;;;5034693;28;20227;-81
2023/09/09 09:52:49;;;;;;;3.08;2.78;;;28.00;99.90;;;;;;5035096;28;20204;-81
2023/09/09 09:55:20;;;;;;;4.82;3.65;;;28.10;99.90;;;;;;5034576;28;20224;-81
2023/09/09 09:57:47;;;;;;;2.90;2.70;;;28.00;99.90;;;;;;5035026;28;20200;-81
2023/09/09 10:00:15;;;;;;;2.60;2.40;;;28.00;99.90;;;;;;5034907;28;20301;-81
2023/09/09 10:02:43;;;;;;;2.22;2.13;;;27.90;99.90;;;;;;5034588;28;20688;-81
2023/09/09 10:05:14;;;;;;;5.78;3.42;;;28.00;99.90;;;;;;5034420;28;20703;-81
2023/09/09 10:07:43;;;;;;;3.58;3.10;;;28.00;99.90;;;;;;5034855;28;20191;-81
2023/09/09 10:10:14;;;;;;;2.65;2.40;;;28.20;99.90;;;;;;5035188;28;20227;-81
2023/09/09 10:12:49;;;;;;;8.02;3.10;;;28.40;99.90;;;;;;5034709;28;20319;-81
2023/09/09 10:15:16;;;;;;;3.33;2.97;;;28.50;99.90;;;;;;5034299;28;20227;-81
2023/09/09 10:17:44;;;;;;;2.65;2.45;;;28.70;99.90;;;;;;5034304;28;20196;-81
2023/09/09 10:20:12;;;;;;;10.85;2.78;;;28.70;99.90;;;;;;5034472;28;20287;-81
2023/09/09 10:22:41;;;;;;;2.95;2.60;;;28.80;99.90;;;;;;5034396;28;20695;-81
2023/09/09 10:25:10;;;;;;;3.92;2.53;;;28.80;99.90;;;;;;5034156;28;20257;-81
2023/09/09 10:27:38;;;;;;;2.58;1.95;;;28.80;99.90;;;;;;5034184;28;20593;-81
2023/09/09 10:30:09;;;;;;;4.07;2.47;;;28.80;99.90;;;;;;5034230;28;20235;-81
2023/09/09 10:32:36;;;;;;;1.75;1.65;;;28.90;99.90;;;;;;5033992;28;20669;-81
2023/09/09 10:35:06;;;;;;;3.72;2.10;;;28.90;99.90;;;;;;5034112;28;20281;-81
2023/09/09 10:37:35;;;;;;;2.53;2.33;;;28.90;99.90;;;;;;5034123;28;20204;-81
2023/09/09 10:40:04;;;;;;;2.67;2.47;;;28.80;99.90;;;;;;5034079;28;20199;-81
2023/09/09 10:42:31;;;;;;;2.38;2.17;;;28.70;99.90;;;;;;5033879;28;20277;-81
2023/09/09 10:45:29;;;;;;;4.72;2.38;;;28.80;99.90;;;;;;5033648;28;20709;-81
2023/09/09 10:47:58;;;;;;;2.53;2.33;;;28.90;99.90;;;;;;5034060;28;20540;-81
2023/09/09 10:50:39;;;;;;;2.50;2.30;;;28.90;99.90;;;;;;5033837;28;20230;-81
2023/09/09 10:53:18;;;;;;;4.45;1.92;;;28.90;99.90;;;;;;5033626;28;20637;-81
2023/09/09 10:55:46;;;;;;;4.38;2.22;;;28.90;99.90;;;;;;5033750;28;20224;-81
2023/09/09 10:58:17;;;;;;;2.80;2.20;;;29.00;99.90;;;;;;5032995;28;20206;-81
2023/09/09 11:00:47;;;;;;;4.13;2.33;;;29.20;99.90;;;;;;5033070;28;20200;-81
2023/09/09 11:03:16;;;;;;;3.03;2.20;;;29.40;99.90;;;;;;5032223;28;20201;-81
2023/09/09 11:06:06;;;;;;;2.08;1.98;;;29.50;99.90;;;;;;5032800;28;20240;-81
2023/09/09 11:08:36;;;;;;;6.20;1.88;;;29.60;99.90;;;;;;5033152;28;20245;-81
2023/09/09 11:11:12;;;;;;;2.28;2.08;;;29.60;99.90;;;;;;5033393;28;20229;-81
2023/09/09 11:13:50;;;;;;;2.88;2.25;;;29.50;99.90;;;;;;5033215;28;20260;-81
2023/09/09 11:16:30;;;;;;;2.13;2.03;;;29.40;99.90;;;;;;5033436;28;20252;-81
2023/09/09 11:18:58;;;;;;;2.00;1.90;;;29.50;99.90;;;;;;5033418;28;20198;-81
2023/09/09 11:21:25;;;;;;;2.17;1.98;;;29.50;99.90;;;;;;5033448;28;20231;-81
2023/09/09 11:23:53;;;;;;;3.00;1.60;;;29.50;99.90;;;;;;5033512;28;20212;-81
2023/09/09 11:26:20;;;;;;;2.67;1.88;;;29.50;99.90;;;;;;5033044;28;20237;-81
2023/09/09 11:28:49;;;;;;;1.58;1.48;;;29.50;99.90;;;;;;5033381;28;20206;-81
2023/09/09 11:31:18;;;;;;;1.70;1.60;;;29.30;99.90;;;;;;5033295;28;20658;-81
2023/09/09 11:33:46;;;;;;;1.60;1.50;;;29.10;99.90;;;;;;5033421;28;20570;-81
2023/09/09 11:36:16;;;;;;;2.15;1.90;;;28.90;99.90;;;;;;5033052;28;20235;-81
2023/09/09 11:38:43;;;;;;;2.40;2.20;;;28.70;99.90;;;;;;5033202;28;20254;-81
2023/09/09 11:41:17;;;;;;;2.55;2.35;;;28.60;99.90;;;;;;5032923;28;20205;-81
2023/09/09 11:44:07;;;;;;;2.05;1.60;;;28.50;99.90;;;;;;5032962;28;20639;-81
2023/09/09 11:46:40;;;;;;;3.28;2.10;;;28.30;99.90;;;;;;5033189;28;20215;-81
2023/09/09 11:49:24;;;;;;;1.98;1.75;;;28.20;99.90;;;;;;5032761;28;20690;-81
2023/09/09 11:51:52;;;;;;;2.03;1.92;;;28.20;99.90;;;;;;5033152;28;20194;-81
2023/09/09 11:54:23;;;;;;;3.10;2.00;;;28.20;99.90;;;;;;5032748;28;20192;-81
2023/09/09 11:56:50;;;;;;;2.92;1.77;;;28.30;99.90;;;;;;5032836;28;20324;-81
2023/09/09 11:59:18;;;;;;;2.88;2.50;;;28.30;99.90;;;;;;5033026;28;20290;-81
2023/09/09 12:01:47;;;;;;;1.88;1.77;;;28.40;99.90;;;;;;5033034;28;20306;-81
2023/09/09 12:04:20;;;;;;;2.78;2.58;;;28.40;99.90;;;;;;5032721;28;20203;-81
2023/09/09 12:06:51;;;;;;;2.13;2.00;;;28.40;99.90;;;;;;5033113;28;20180;-81
2023/09/09 12:09:19;;;;;;;2.00;1.90;;;28.40;99.90;;;;;;5032650;28;20195;-81
2023/09/09 12:11:47;;;;;;;2.28;2.17;;;28.40;99.90;;;;;;5032990;28;20203;-81
2023/09/09 12:14:16;;;;;;;2.42;2.28;;;28.30;99.90;;;;;;5033190;28;20199;-81
2023/09/09 12:16:46;;;;;;;2.28;2.17;;;28.30;99.90;;;;;;5032644;28;20222;-81
2023/09/09 12:19:16;;;;;;;2.05;1.95;;;28.30;99.90;;;;;;5034075;28;20207;-81
2023/09/09 12:21:46;;;;;;;2.05;1.85;;;28.40;99.90;;;;;;5036411;28;20215;-81
2023/09/09 12:24:14;;;;;;;2.40;2.20;;;28.60;99.90;;;;;;5036681;28;20219;-81
2023/09/09 12:26:57;;;;;;;3.85;2.78;;;28.50;99.90;;;;;;5036016;28;20716;-81
2023/09/09 12:29:27;;;;;;;8.52;3.20;;;28.60;99.90;;;;;;5036459;28;20204;-81
2023/09/09 12:31:56;;;;;;;2.10;2.00;;;28.50;99.90;;;;;;5035649;28;20211;-81
2023/09/09 12:34:24;;;;;;;2.67;2.10;;;28.30;99.90;;;;;;5036099;28;20217;-81
2023/09/09 12:37:02;;;;;;;1.45;1.38;;;28.20;99.90;;;;;;5036075;28;20203;-81
2023/09/09 12:39:31;;;;;;;2.55;2.05;;;28.10;99.90;;;;;;5036124;28;20213;-81
2023/09/09 12:42:00;;;;;;;2.00;1.80;;;28.00;99.90;;;;;;5036054;28;20211;-81
2023/09/09 12:44:28;;;;;;;1.92;1.83;;;27.90;99.90;;;;;;5035872;28;20211;-81
2023/09/09 12:46:56;;;;;;;2.47;2.28;;;28.00;99.90;;;;;;5035994;28;20210;-81
2023/09/09 12:49:23;;;;;;;3.33;3.03;;;28.00;99.90;;;;;;5035919;28;20207;-81